createdAt,value
2019-04-29T00:08:13.398Z,22.50
2019-04-29T00:21:36.089Z,22.50
2019-04-29T00:48:00.604Z,22.50
2019-04-29T01:01:07.766Z,22.50
2019-04-29T01:14:15.051Z,22.40
2019-04-29T01:27:22.247Z,22.40
2019-04-29T01:40:29.434Z,22.40
2019-04-29T01:53:36.608Z,22.40
2019-04-29T02:20:01.901Z,22.40
2019-04-29T02:33:09.088Z,22.40
2019-04-29T02:46:16.268Z,22.40
2019-04-29T02:59:23.443Z,22.40
2019-04-29T03:25:34.072Z,22.40
2019-04-29T03:38:41.238Z,22.40
2019-04-29T03:51:48.427Z,22.40
2019-04-29T04:04:55.603Z,22.40
2019-04-29T04:18:02.913Z,22.40
2019-04-29T04:31:10.244Z,22.40
2019-04-29T04:44:34.059Z,22.40
2019-04-29T04:57:56.699Z,22.40
2019-04-29T05:11:19.617Z,22.40
2019-04-29T05:24:42.326Z,22.40
2019-04-29T05:38:05.167Z,22.40
2019-04-29T05:51:28.538Z,22.30
2019-04-29T06:04:52.251Z,22.30
2019-04-29T06:18:13.586Z,22.30
2019-04-29T06:31:36.395Z,22.30
2019-04-29T06:44:59.250Z,22.30
2019-04-29T06:58:22.076Z,22.30
2019-04-29T07:11:44.985Z,22.10
2019-04-29T07:25:07.689Z,22.10
2019-04-29T07:38:40.635Z,22.10
2019-04-29T07:51:53.338Z,22.20
2019-04-29T08:05:16.172Z,22.10
2019-04-29T08:18:39.097Z,22.00
2019-04-29T08:32:02.417Z,22.20
2019-04-29T08:45:24.708Z,22.40
2019-04-29T08:58:49.034Z,22.50
2019-04-29T09:12:10.272Z,22.60
2019-04-29T09:25:33.150Z,22.60
2019-04-29T09:38:55.998Z,22.50
2019-04-29T09:52:18.819Z,22.50
2019-04-29T10:18:43.200Z,22.50
2019-04-29T10:31:50.538Z,22.50
2019-04-29T10:44:57.690Z,22.50
2019-04-29T10:58:04.875Z,22.50
2019-04-29T11:11:21.751Z,22.40
2019-04-29T11:24:19.362Z,22.40
2019-04-29T11:37:42.865Z,22.40
2019-04-29T11:51:05.689Z,22.50
2019-04-29T12:04:32.892Z,22.60
2019-04-29T12:30:52.964Z,22.60
2019-04-29T12:44:00.255Z,22.60
2019-04-29T13:10:13.672Z,22.70
2019-04-29T13:36:26.097Z,22.50
2019-04-29T14:02:37.973Z,22.30
2019-04-29T14:15:45.297Z,22.30
2019-04-29T14:41:57.303Z,22.30
2019-04-29T14:55:04.832Z,22.30
2019-04-29T15:08:12.338Z,22.20
2019-04-29T15:21:31.007Z,22.20
2019-04-29T15:34:27.105Z,22.20
2019-04-29T16:00:52.258Z,22.30
2019-04-29T16:14:09.109Z,22.20
2019-04-29T16:27:08.792Z,22.10
2019-04-29T16:40:14.284Z,22.10
2019-04-29T16:53:23.030Z,22.20
2019-04-29T17:07:09.120Z,22.10
2019-04-29T17:20:08.411Z,22.10
2019-04-29T17:33:31.739Z,22.10
2019-04-29T17:46:54.023Z,22.00
2019-04-29T18:00:16.859Z,22.00
2019-04-29T18:13:39.699Z,21.90
2019-04-29T18:27:02.829Z,22.10
2019-04-29T18:40:25.866Z,22.10
2019-04-29T18:53:48.135Z,22.10
2019-04-29T19:07:10.934Z,22.10
2019-04-29T19:20:35.444Z,22.10
2019-04-29T19:33:57.374Z,22.10
2019-04-29T19:47:19.397Z,22.10
2019-04-29T20:00:42.790Z,22.10
2019-04-29T20:14:08.744Z,22.10
2019-04-29T20:27:30.439Z,22.10
2019-04-29T20:40:50.858Z,22.10
2019-04-29T20:54:18.861Z,22.10
2019-04-29T21:07:36.325Z,22.10
2019-04-29T21:20:59.496Z,22.10
2019-04-29T21:34:21.927Z,22.10
2019-04-29T21:47:45.686Z,22.20
2019-04-29T22:01:07.657Z,22.20
2019-04-29T22:14:30.500Z,22.20
2019-04-29T22:54:01.252Z,22.20
2019-04-29T23:07:08.451Z,22.20
2019-04-29T23:20:15.627Z,22.20
2019-04-29T23:47:20.936Z,22.10
